createdAt,value
2023-02-02T00:01:29.506Z,101788.66
2023-02-02T00:03:57.247Z,101775.16
2023-02-02T00:06:26.924Z,101784.66
2023-02-02T00:08:55.601Z,101784.25
2023-02-02T00:11:22.533Z,101750.97
2023-02-02T00:13:49.217Z,101782.53
2023-02-02T00:16:31.301Z,101795.44
2023-02-02T00:19:03.871Z,101757.06
2023-02-02T00:21:30.723Z,101802.28
2023-02-02T00:23:57.846Z,101790.91
2023-02-02T00:26:25.031Z,101775.72
2023-02-02T00:28:51.996Z,101773.19
2023-02-02T00:31:18.904Z,101778.34
2023-02-02T00:33:47.363Z,101797.72
2023-02-02T00:36:14.561Z,101815.16
2023-02-02T00:38:41.434Z,101786.59
2023-02-02T00:41:08.163Z,101788.13
2023-02-02T00:43:35.266Z,101808.56
2023-02-02T00:46:02.265Z,101786.22
2023-02-02T00:48:29.012Z,101779.50
2023-02-02T00:50:56.042Z,101811.75
2023-02-02T00:53:23.123Z,101761.13
2023-02-02T00:55:49.829Z,101803.03
2023-02-02T00:58:16.511Z,101806.13
2023-02-02T01:00:43.401Z,101802.09
2023-02-02T01:03:10.371Z,101790.75
2023-02-02T01:05:37.063Z,101736.16
2023-02-02T01:08:04.007Z,101799.97
2023-02-02T01:10:30.746Z,101812.00
2023-02-02T01:12:57.425Z,101811.72
2023-02-02T01:15:24.964Z,101812.44
2023-02-02T01:17:51.857Z,101773.09
2023-02-02T01:20:20.276Z,101820.56
2023-02-02T01:22:47.809Z,101784.75
2023-02-02T01:25:14.873Z,101803.25
2023-02-02T01:27:43.128Z,101794.59
2023-02-02T01:30:10.866Z,101775.09
2023-02-02T01:32:37.552Z,101829.56
2023-02-02T01:35:04.406Z,101825.84
2023-02-02T01:37:31.293Z,101825.84
2023-02-02T01:39:57.960Z,101838.69
2023-02-02T01:42:24.698Z,101842.94
2023-02-02T01:44:57.290Z,101852.38
2023-02-02T01:47:29.811Z,101845.50
2023-02-02T01:49:56.753Z,101834.06
2023-02-02T01:52:27.777Z,101852.09
2023-02-02T01:55:10.725Z,101833.81
2023-02-02T01:57:45.585Z,101834.88
2023-02-02T02:00:15.816Z,101845.66
2023-02-02T02:02:49.179Z,101847.19
2023-02-02T02:05:20.758Z,101850.59
2023-02-02T02:07:49.639Z,101829.72
2023-02-02T02:10:18.253Z,101822.06
2023-02-02T02:12:47.033Z,101834.69
2023-02-02T02:15:32.031Z,101842.19
2023-02-02T02:18:20.678Z,101844.72
2023-02-02T02:21:43.585Z,101839.38
2023-02-02T02:25:05.680Z,101781.50
2023-02-02T02:28:04.940Z,101834.75
2023-02-02T02:30:50.052Z,101831.03
2023-02-02T02:33:35.694Z,101828.25
2023-02-02T02:36:36.335Z,101827.00
2023-02-02T02:39:32.753Z,101836.50
2023-02-02T02:42:06.637Z,101817.81
2023-02-02T02:44:33.863Z,101834.34
2023-02-02T02:47:00.997Z,101848.44
2023-02-02T02:49:27.680Z,101836.84
2023-02-02T02:51:56.670Z,101842.69
2023-02-02T02:54:33.327Z,101834.81
2023-02-02T02:57:12.169Z,101851.81
2023-02-02T02:59:53.360Z,101843.94
2023-02-02T03:02:43.110Z,101850.56
2023-02-02T03:06:00.491Z,101854.78
2023-02-02T03:08:27.224Z,101859.06
2023-02-02T03:10:57.181Z,101819.59
2023-02-02T03:13:24.530Z,101818.78
2023-02-02T03:15:51.498Z,101851.94
2023-02-02T03:18:21.917Z,101865.53
2023-02-02T03:20:48.698Z,101826.09
2023-02-02T03:23:15.527Z,101854.84
2023-02-02T03:25:42.386Z,101868.44
2023-02-02T03:28:09.198Z,101835.03
2023-02-02T03:30:37.122Z,101822.06
2023-02-02T03:33:05.418Z,101794.00
2023-02-02T03:35:32.187Z,101847.38
2023-02-02T03:37:58.975Z,101845.66
2023-02-02T03:40:26.142Z,101822.56
2023-02-02T03:42:52.830Z,101801.81
2023-02-02T03:45:19.753Z,101845.34
2023-02-02T03:47:46.460Z,101846.19
2023-02-02T03:50:13.387Z,101859.94
2023-02-02T03:52:40.650Z,101841.75
2023-02-02T03:55:07.788Z,101870.81
2023-02-02T03:57:34.568Z,101872.06
2023-02-02T04:00:01.319Z,101881.81
2023-02-02T04:02:28.039Z,101868.41
2023-02-02T04:04:54.756Z,101885.63
2023-02-02T04:07:21.690Z,101880.78
2023-02-02T04:09:48.499Z,101883.75
2023-02-02T04:12:15.165Z,101881.84
2023-02-02T04:14:42.050Z,101894.00
2023-02-02T04:17:08.813Z,101855.84
2023-02-02T04:19:35.526Z,101891.06
2023-02-02T04:22:02.341Z,101897.13
2023-02-02T04:24:29.078Z,101886.97
2023-02-02T04:26:55.899Z,101878.44
2023-02-02T04:29:22.774Z,101858.34
2023-02-02T04:31:49.728Z,101891.53
2023-02-02T04:34:16.506Z,101902.91
2023-02-02T04:36:43.508Z,101898.56
2023-02-02T04:39:11.932Z,101911.44
2023-02-02T04:41:38.619Z,101906.13
2023-02-02T04:44:06.972Z,101905.25
2023-02-02T04:46:33.744Z,101858.50
2023-02-02T04:49:00.389Z,101911.44
2023-02-02T04:51:27.209Z,101880.00
2023-02-02T04:53:53.952Z,101872.13
2023-02-02T04:56:20.696Z,101888.97
2023-02-02T04:58:47.549Z,101873.06
2023-02-02T05:01:19.562Z,101907.88
2023-02-02T05:03:47.417Z,101914.84
2023-02-02T05:06:15.943Z,101870.56
2023-02-02T05:08:43.479Z,101904.59
2023-02-02T05:11:12.650Z,101909.03
2023-02-02T05:13:39.811Z,101914.84
2023-02-02T05:16:07.337Z,101902.91
2023-02-02T05:18:34.048Z,101905.41
2023-02-02T05:21:02.637Z,101908.81
2023-02-02T05:23:30.589Z,101924.34
2023-02-02T05:25:57.553Z,101899.81
2023-02-02T05:28:25.133Z,101923.69
2023-02-02T05:30:52.423Z,101921.97
2023-02-02T05:33:19.849Z,101922.81
2023-02-02T05:35:47.793Z,101925.59
2023-02-02T05:38:15.616Z,101906.47
2023-02-02T05:40:42.923Z,101906.47
2023-02-02T05:43:09.787Z,101898.66
2023-02-02T05:45:36.544Z,101902.13
2023-02-02T05:48:03.379Z,101907.41
2023-02-02T05:50:30.099Z,101910.88
2023-02-02T05:52:57.415Z,101894.84
2023-02-02T05:55:24.415Z,101906.78
2023-02-02T05:57:51.366Z,101927.38
2023-02-02T06:00:18.567Z,101860.19
2023-02-02T06:02:45.418Z,101918.69
2023-02-02T06:05:12.277Z,101923.31
2023-02-02T06:07:39.131Z,101937.91
2023-02-02T06:10:06.083Z,101915.44
2023-02-02T06:12:32.964Z,101897.03
2023-02-02T06:14:59.870Z,101933.53
2023-02-02T06:17:26.512Z,101931.84
2023-02-02T06:19:56.221Z,101891.28
2023-02-02T06:22:23.065Z,101889.59
2023-02-02T06:24:49.904Z,101920.38
2023-02-02T06:27:16.731Z,101923.81
2023-02-02T06:29:43.511Z,101922.81
2023-02-02T06:32:10.315Z,101912.06
2023-02-02T06:34:37.236Z,101883.09
2023-02-02T06:37:04.133Z,101913.81
2023-02-02T06:39:30.800Z,101934.50
2023-02-02T06:41:58.375Z,101938.03
2023-02-02T06:44:26.149Z,101939.91
2023-02-02T06:46:53.281Z,101928.50
2023-02-02T06:49:20.016Z,101917.44
2023-02-02T06:51:49.664Z,101908.41
2023-02-02T06:54:16.332Z,101945.16
2023-02-02T06:56:43.071Z,101924.56
2023-02-02T06:59:09.801Z,101935.81
2023-02-02T07:01:36.798Z,101943.44
2023-02-02T07:04:04.061Z,101935.88
2023-02-02T07:06:30.898Z,101936.78
2023-02-02T07:09:02.531Z,101962.31
2023-02-02T07:11:39.849Z,101961.78
2023-02-02T07:14:09.620Z,101984.03
2023-02-02T07:16:36.867Z,101966.84
2023-02-02T07:19:03.921Z,101987.44
2023-02-02T07:21:35.769Z,101955.13
2023-02-02T07:24:04.927Z,101991.84
2023-02-02T07:26:32.030Z,101936.38
2023-02-02T07:28:58.799Z,101997.97
2023-02-02T07:31:27.431Z,101992.09
2023-02-02T07:33:54.835Z,102004.47
2023-02-02T07:36:24.499Z,101982.84
2023-02-02T07:39:02.572Z,102013.63
2023-02-02T07:41:29.205Z,101955.66
2023-02-02T07:43:57.428Z,102004.34
2023-02-02T07:46:24.363Z,102021.34
2023-02-02T07:48:55.390Z,102000.78
2023-02-02T07:51:22.646Z,102014.38
2023-02-02T07:53:52.183Z,102015.94
2023-02-02T07:56:21.828Z,101982.00
2023-02-02T07:58:49.060Z,102011.69
2023-02-02T08:01:17.108Z,102038.53
2023-02-02T08:03:44.349Z,102033.13
2023-02-02T08:06:29.018Z,102024.47
2023-02-02T08:08:56.121Z,102041.81
2023-02-02T08:11:23.728Z,102047.63
2023-02-02T08:13:52.857Z,102043.97
2023-02-02T08:16:20.320Z,102049.94
2023-02-02T08:18:47.469Z,102056.00
2023-02-02T08:21:15.215Z,102046.59
2023-02-02T08:23:42.850Z,102073.25
2023-02-02T08:26:11.849Z,102038.09
2023-02-02T08:28:40.748Z,102064.25
2023-02-02T08:31:16.426Z,102019.44
2023-02-02T08:33:43.359Z,102072.16
2023-02-02T08:36:18.158Z,101978.25
2023-02-02T08:38:45.855Z,102069.44
2023-02-02T08:41:15.876Z,102004.81
2023-02-02T08:43:43.359Z,102057.59
2023-02-02T08:46:14.342Z,102072.09
2023-02-02T08:48:41.650Z,102065.09
2023-02-02T08:51:10.488Z,102087.03
2023-02-02T08:53:37.357Z,102088.75
2023-02-02T08:56:11.212Z,102095.56
2023-02-02T08:58:38.337Z,102063.03
2023-02-02T09:01:07.760Z,102096.34
2023-02-02T09:03:34.973Z,102085.50
2023-02-02T09:06:07.134Z,102111.81
2023-02-02T09:08:34.356Z,102102.38
2023-02-02T09:11:09.116Z,102102.22
2023-02-02T09:13:37.772Z,102124.53
2023-02-02T09:16:07.024Z,102126.09
2023-02-02T09:18:33.841Z,102120.97
2023-02-02T09:21:06.553Z,102123.28
2023-02-02T09:23:35.713Z,102129.16
2023-02-02T09:26:20.416Z,102101.91
2023-02-02T09:28:55.821Z,102099.19
2023-02-02T09:31:23.568Z,102077.03
2023-02-02T09:33:50.401Z,102103.19
2023-02-02T09:36:23.165Z,102135.66
2023-02-02T09:38:51.019Z,102133.09
2023-02-02T09:41:26.897Z,102148.53
2023-02-02T09:44:21.596Z,102150.09
2023-02-02T09:47:02.895Z,102155.97
2023-02-02T09:49:39.592Z,102125.31
2023-02-02T09:52:15.357Z,102158.19
2023-02-02T09:54:46.288Z,102157.94
2023-02-02T09:57:31.332Z,102141.50
2023-02-02T09:59:58.308Z,102143.06
2023-02-02T10:02:32.797Z,102149.47
2023-02-02T10:05:09.090Z,102157.03
2023-02-02T10:07:41.791Z,102127.00
2023-02-02T10:10:27.421Z,102163.53
2023-02-02T10:13:12.749Z,102162.53
2023-02-02T10:15:46.099Z,102164.66
2023-02-02T10:18:28.150Z,102167.91
2023-02-02T10:20:59.574Z,102161.50
2023-02-02T10:23:31.109Z,102156.25
2023-02-02T10:26:13.158Z,102168.78
2023-02-02T10:29:02.999Z,102157.53
2023-02-02T10:32:02.166Z,102171.66
2023-02-02T10:34:41.318Z,102185.63
2023-02-02T10:37:30.995Z,102184.72
2023-02-02T10:40:19.276Z,102183.00
2023-02-02T10:43:08.819Z,102184.88
2023-02-02T10:45:37.885Z,102191.06
2023-02-02T10:48:13.948Z,102175.84
2023-02-02T10:50:44.447Z,102171.72
2023-02-02T10:53:14.368Z,102193.91
2023-02-02T10:56:14.362Z,102177.53
2023-02-02T10:58:58.691Z,102191.34
2023-02-02T11:01:25.784Z,102192.19
2023-02-02T11:04:12.543Z,102188.00
2023-02-02T11:06:52.203Z,102202.75
2023-02-02T11:09:25.200Z,102202.75
2023-02-02T11:12:01.045Z,102206.16
2023-02-02T11:14:45.742Z,102206.84
2023-02-02T11:17:24.948Z,102214.59
2023-02-02T11:19:52.845Z,102211.13
2023-02-02T11:22:28.845Z,102212.91
2023-02-02T11:24:57.313Z,102192.53
2023-02-02T11:27:43.618Z,102197.97
2023-02-02T11:30:34.623Z,102221.84
2023-02-02T11:33:26.506Z,102180.84
2023-02-02T11:36:05.326Z,102220.13
2023-02-02T11:38:32.735Z,102223.34
2023-02-02T11:41:03.790Z,102226.97
2023-02-02T11:43:36.912Z,102225.25
2023-02-02T11:46:06.524Z,102201.22
2023-02-02T11:48:39.196Z,102212.03
2023-02-02T11:51:08.116Z,102209.63
2023-02-02T11:53:47.599Z,102212.78
2023-02-02T11:56:25.489Z,102204.88
2023-02-02T11:59:01.651Z,102193.72
2023-02-02T12:01:30.150Z,102202.84
2023-02-02T12:04:01.744Z,102200.97
2023-02-02T12:06:38.700Z,102199.16
2023-02-02T12:09:23.903Z,102207.78
2023-02-02T12:12:12.747Z,102209.50
2023-02-02T12:14:45.389Z,102199.69
2023-02-02T12:17:42.274Z,102190.22
2023-02-02T12:20:27.982Z,102201.38
2023-02-02T12:23:18.095Z,102191.66
2023-02-02T12:26:00.371Z,102199.44
2023-02-02T12:29:04.835Z,102195.94
2023-02-02T12:31:31.498Z,102199.50
2023-02-02T12:34:23.882Z,102197.63
2023-02-02T12:37:08.311Z,102167.91
2023-02-02T12:40:00.544Z,102180.50
2023-02-02T12:42:39.558Z,102195.94
2023-02-02T12:45:24.461Z,102195.06
2023-02-02T12:48:21.990Z,102193.38
2023-02-02T12:51:14.852Z,102158.09
2023-02-02T12:54:33.296Z,102163.81
2023-02-02T12:57:32.868Z,102173.44
2023-02-02T13:00:09.006Z,102169.28
2023-02-02T13:02:42.599Z,102156.25
2023-02-02T13:05:46.813Z,102156.25
2023-02-02T13:08:25.569Z,102134.47
2023-02-02T13:11:04.298Z,102158.28
2023-02-02T13:13:38.521Z,102146.38
2023-02-02T13:16:10.664Z,102099.78
2023-02-02T13:18:53.932Z,102172.25
2023-02-02T13:21:24.850Z,102160.16
2023-02-02T13:23:56.634Z,102166.66
2023-02-02T13:26:27.772Z,102101.16
2023-02-02T13:29:01.839Z,102157.34
2023-02-02T13:31:42.189Z,102163.38
2023-02-02T13:34:20.495Z,102164.44
2023-02-02T13:37:01.972Z,102160.16
2023-02-02T13:39:37.419Z,102166.22
2023-02-02T13:42:16.850Z,102092.03
2023-02-02T13:44:49.930Z,102157.59
2023-02-02T13:47:24.450Z,102145.19
2023-02-02T13:49:56.723Z,102159.47
2023-02-02T13:53:07.281Z,102163.22
2023-02-02T13:56:09.324Z,102171.22
2023-02-02T13:59:16.303Z,102164.59
2023-02-02T14:01:49.593Z,102169.88
2023-02-02T14:04:28.533Z,102171.06
2023-02-02T14:06:59.439Z,102157.94
2023-02-02T14:09:29.819Z,102164.94
2023-02-02T14:11:59.940Z,102165.59
2023-02-02T14:14:33.434Z,102135.63
2023-02-02T14:17:01.047Z,102138.88
2023-02-02T14:19:27.697Z,102151.47
2023-02-02T14:22:17.484Z,102092.72
2023-02-02T14:24:53.712Z,102130.03
2023-02-02T14:27:29.382Z,102150.47
2023-02-02T14:29:56.091Z,102149.53
2023-02-02T14:32:29.174Z,102146.88
2023-02-02T14:34:59.476Z,102060.19
2023-02-02T14:37:28.802Z,102159.16
2023-02-02T14:40:08.728Z,102164.44
2023-02-02T14:43:18.538Z,102167.81
2023-02-02T14:45:50.239Z,102162.53
2023-02-02T14:48:22.570Z,102158.97
2023-02-02T14:50:56.178Z,102151.97
2023-02-02T14:53:28.657Z,102164.25
2023-02-02T14:56:09.271Z,102125.69
2023-02-02T14:58:54.594Z,102158.03
2023-02-02T15:01:22.976Z,102160.66
2023-02-02T15:03:51.326Z,102164.09
2023-02-02T15:06:40.663Z,102144.47
2023-02-02T15:09:23.475Z,102167.50
2023-02-02T15:12:01.004Z,102160.31
2023-02-02T15:14:43.238Z,102163.75
2023-02-02T15:17:16.176Z,102170.72
2023-02-02T15:19:47.876Z,102170.88
2023-02-02T15:22:18.271Z,102172.25
2023-02-02T15:24:46.148Z,102167.91
2023-02-02T15:27:18.943Z,102150.88
2023-02-02T15:29:52.983Z,102166.81
2023-02-02T15:32:24.631Z,102168.16
2023-02-02T15:34:55.335Z,102181.88
2023-02-02T15:37:29.710Z,102183.44
2023-02-02T15:40:01.269Z,102141.59
2023-02-02T15:43:00.813Z,102197.47
2023-02-02T15:45:38.064Z,102191.34
2023-02-02T15:48:31.739Z,102187.94
2023-02-02T15:51:04.997Z,102198.66
2023-02-02T15:53:48.607Z,102203.63
2023-02-02T15:56:23.069Z,102206.25
2023-02-02T15:58:54.789Z,102180.59
2023-02-02T16:01:23.931Z,102200.97
2023-02-02T16:03:53.260Z,102199.44
2023-02-02T16:06:20.786Z,102210.56
2023-02-02T16:08:49.419Z,102191.84
2023-02-02T16:11:19.336Z,102207.28
2023-02-02T16:14:19.456Z,102216.81
2023-02-02T16:16:49.352Z,102191.16
2023-02-02T16:19:26.583Z,102221.16
2023-02-02T16:21:58.549Z,102221.06
2023-02-02T16:24:28.763Z,102204.28
2023-02-02T16:26:59.672Z,102151.31
2023-02-02T16:29:28.321Z,102210.75
2023-02-02T16:31:56.896Z,102215.84
2023-02-02T16:34:39.977Z,102214.94
2023-02-02T16:37:17.438Z,102213.34
2023-02-02T16:39:44.321Z,102208.91
2023-02-02T16:42:20.331Z,102207.34
2023-02-02T16:44:48.818Z,102214.19
2023-02-02T16:47:43.190Z,102216.91
2023-02-02T16:50:10.041Z,102217.91
2023-02-02T16:52:53.730Z,102224.91
2023-02-02T16:55:22.020Z,102183.66
2023-02-02T16:57:50.376Z,102219.63
2023-02-02T17:00:24.016Z,102161.69
2023-02-02T17:03:05.054Z,102221.50
2023-02-02T17:05:48.086Z,102223.13
2023-02-02T17:08:14.822Z,102199.19
2023-02-02T17:10:43.752Z,102199.94
2023-02-02T17:13:36.590Z,102219.63
2023-02-02T17:16:03.723Z,102213.75
2023-02-02T17:18:30.585Z,102223.19
2023-02-02T17:21:03.767Z,102214.34
2023-02-02T17:23:32.665Z,102176.69
2023-02-02T17:25:59.584Z,102204.63
2023-02-02T17:28:26.777Z,102205.47
2023-02-02T17:31:03.113Z,102193.28
2023-02-02T17:33:34.188Z,102210.56
2023-02-02T17:36:01.619Z,102207.69
2023-02-02T17:38:28.967Z,102206.66
2023-02-02T17:41:01.332Z,102204.97
2023-02-02T17:43:32.827Z,102195.59
2023-02-02T17:45:59.805Z,102195.09
2023-02-02T17:48:26.690Z,102167.66
2023-02-02T17:50:53.455Z,102206.84
2023-02-02T17:53:22.520Z,102183.84
2023-02-02T17:55:52.036Z,102179.44
2023-02-02T17:58:19.699Z,102173.44
2023-02-02T18:00:48.960Z,102211.94
2023-02-02T18:03:21.567Z,102211.94
2023-02-02T18:05:48.524Z,102210.25
2023-02-02T18:08:15.829Z,102193.63
2023-02-02T18:10:43.700Z,102182.66
2023-02-02T18:13:19.258Z,102196.88
2023-02-02T18:15:46.711Z,102194.06
2023-02-02T18:18:13.545Z,102189.13
2023-02-02T18:20:50.271Z,102195.94
2023-02-02T18:23:18.703Z,102201.22
2023-02-02T18:25:45.442Z,102173.09
2023-02-02T18:28:17.554Z,102193.72
2023-02-02T18:30:44.951Z,102191.94
2023-02-02T18:33:13.060Z,102193.72
2023-02-02T18:35:47.399Z,102206.50
2023-02-02T18:38:14.751Z,102197.78
2023-02-02T18:40:41.719Z,102163.75
2023-02-02T18:43:08.647Z,102145.00
2023-02-02T18:45:36.542Z,102189.13
2023-02-02T18:48:03.472Z,102186.66
2023-02-02T18:50:30.667Z,102180.59
2023-02-02T18:52:57.798Z,102189.88
2023-02-02T18:55:25.031Z,102195.16
2023-02-02T18:57:52.741Z,102190.66
2023-02-02T19:00:19.991Z,102178.72
2023-02-02T19:02:46.691Z,102172.44
2023-02-02T19:05:32.623Z,102177.53
2023-02-02T19:07:59.426Z,102166.44
2023-02-02T19:10:27.631Z,102169.69
2023-02-02T19:12:58.691Z,102178.22
2023-02-02T19:15:26.922Z,102154.19
2023-02-02T19:17:55.404Z,102134.25
2023-02-02T19:20:29.980Z,102174.63
2023-02-02T19:23:02.259Z,102095.09
2023-02-02T19:25:29.176Z,102160.66
2023-02-02T19:27:56.261Z,102150.44
2023-02-02T19:30:23.910Z,102147.88
2023-02-02T19:32:51.167Z,102113.00
2023-02-02T19:35:24.611Z,102157.66
2023-02-02T19:37:59.750Z,102142.75
2023-02-02T19:40:27.005Z,102149.94
2023-02-02T19:43:07.255Z,102146.19
2023-02-02T19:45:35.735Z,102154.03
2023-02-02T19:48:15.399Z,102124.19
2023-02-02T19:50:42.215Z,102164.41
2023-02-02T19:53:20.579Z,102184.38
2023-02-02T19:55:48.612Z,102143.09
2023-02-02T19:58:28.909Z,102182.47
2023-02-02T20:00:58.201Z,102178.88
2023-02-02T20:03:28.286Z,102192.88
2023-02-02T20:05:57.068Z,102178.72
2023-02-02T20:08:40.734Z,102192.72
2023-02-02T20:11:36.198Z,102191.84
2023-02-02T20:14:21.745Z,102185.22
2023-02-02T20:17:29.096Z,102189.47
2023-02-02T20:19:57.085Z,102147.03
2023-02-02T20:22:28.583Z,102129.84
2023-02-02T20:25:03.800Z,102161.09
2023-02-02T20:27:33.631Z,102188.72
2023-02-02T20:30:18.038Z,102158.78
2023-02-02T20:32:44.864Z,102190.38
2023-02-02T20:35:43.143Z,102186.06
2023-02-02T20:38:35.823Z,102192.19
2023-02-02T20:41:04.685Z,102163.78
2023-02-02T20:43:31.518Z,102165.53
2023-02-02T20:45:58.402Z,102110.56
2023-02-02T20:48:26.256Z,102144.44
2023-02-02T20:50:53.110Z,102167.16
2023-02-02T20:53:20.607Z,102168.69
2023-02-02T20:55:47.643Z,102161.09
2023-02-02T20:58:14.390Z,102170.75
2023-02-02T21:00:41.098Z,102179.25
2023-02-02T21:03:08.118Z,102108.28
2023-02-02T21:05:34.914Z,102154.81
2023-02-02T21:08:01.910Z,102148.66
2023-02-02T21:10:29.159Z,102130.47
2023-02-02T21:12:56.052Z,102151.72
2023-02-02T21:15:23.551Z,102137.91
2023-02-02T21:17:50.624Z,102115.16
2023-02-02T21:20:17.449Z,102160.22
2023-02-02T21:22:44.479Z,102166.28
2023-02-02T21:25:11.685Z,102161.31
2023-02-02T21:27:41.397Z,102164.38
2023-02-02T21:30:12.939Z,102153.81
2023-02-02T21:32:40.059Z,102102.13
2023-02-02T21:35:07.151Z,102152.09
2023-02-02T21:37:37.469Z,102122.81
2023-02-02T21:40:13.966Z,102154.41
2023-02-02T21:42:47.541Z,102146.81
2023-02-02T21:45:20.312Z,102163.06
2023-02-02T21:47:59.143Z,102139.84
2023-02-02T21:50:29.687Z,102135.88
2023-02-02T21:53:12.652Z,102177.06
2023-02-02T21:55:39.660Z,102165.56
2023-02-02T21:58:20.987Z,102131.16
2023-02-02T22:00:49.565Z,102146.13
2023-02-02T22:03:35.005Z,102131.28
2023-02-02T22:06:05.086Z,102130.06
2023-02-02T22:11:56.004Z,102117.97
2023-02-02T22:14:32.927Z,102121.19
2023-02-02T22:17:00.317Z,102065.47
2023-02-02T22:19:34.342Z,102100.72
2023-02-02T22:22:25.666Z,102083.06
2023-02-02T22:25:17.640Z,102072.28
2023-02-02T22:27:47.431Z,102083.81
2023-02-02T22:30:23.724Z,102070.88
2023-02-02T22:32:51.119Z,102045.00
2023-02-02T22:35:17.861Z,102059.94
2023-02-02T22:37:44.520Z,102027.25
2023-02-02T22:40:12.089Z,102027.94
2023-02-02T22:42:38.860Z,102011.88
2023-02-02T22:45:05.998Z,102028.75
2023-02-02T22:47:32.901Z,102038.13
2023-02-02T22:49:59.620Z,102035.41
2023-02-02T22:52:26.240Z,102048.16
2023-02-02T22:54:53.174Z,102049.09
2023-02-02T22:57:19.859Z,102034.72
2023-02-02T22:59:46.614Z,102051.75
2023-02-02T23:02:13.430Z,102043.91
2023-02-02T23:04:40.165Z,102036.44
2023-02-02T23:07:06.837Z,102007.13
2023-02-02T23:09:34.090Z,102043.81
2023-02-02T23:12:00.894Z,102037.59
2023-02-02T23:14:27.539Z,102033.97
2023-02-02T23:16:54.831Z,102041.91
2023-02-02T23:19:21.570Z,101974.47
2023-02-02T23:21:48.314Z,102032.47
2023-02-02T23:24:15.154Z,102032.47
2023-02-02T23:26:41.863Z,102023.13
2023-02-02T23:29:08.492Z,102033.09
2023-02-02T23:31:35.406Z,102030.94
2023-02-02T23:34:02.200Z,102047.38
2023-02-02T23:36:28.986Z,102052.09
2023-02-02T23:38:55.768Z,102059.75
2023-02-02T23:41:22.435Z,102061.00
2023-02-02T23:43:50.359Z,102060.53
2023-02-02T23:46:18.116Z,102036.97
2023-02-02T23:48:45.291Z,102064.19
2023-02-02T23:51:13.149Z,102058.91
2023-02-02T23:53:41.763Z,102051.25
2023-02-02T23:56:08.489Z,102071.34
2023-02-02T23:58:36.285Z,102087.03
